sensor_id;sensor_type;location;lat;lon;timestamp;P1;durP1;ratioP1;P2;durP2;ratioP2
36225;SDS011;22268;52.010;4.716;2022-10-18T00:01:28;44.95;;;30.08;;
36225;SDS011;22268;52.010;4.716;2022-10-18T00:03:53;42.08;;;28.12;;
36225;SDS011;22268;52.010;4.716;2022-10-18T00:06:18;47.30;;;31.75;;
36225;SDS011;22268;52.010;4.716;2022-10-18T00:08:43;46.67;;;30.77;;
36225;SDS011;22268;52.010;4.716;2022-10-18T00:11:09;46.97;;;28.00;;
36225;SDS011;22268;52.010;4.716;2022-10-18T00:13:34;44.55;;;28.87;;
36225;SDS011;22268;52.010;4.716;2022-10-18T00:16:00;39.47;;;28.70;;
36225;SDS011;22268;52.010;4.716;2022-10-18T00:18:26;51.42;;;33.72;;
36225;SDS011;22268;52.010;4.716;2022-10-18T00:21:04;36.72;;;27.87;;
36225;SDS011;22268;52.010;4.716;2022-10-18T00:23:30;45.35;;;29.20;;
36225;SDS011;22268;52.010;4.716;2022-10-18T00:28:20;39.17;;;26.30;;
36225;SDS011;22268;52.010;4.716;2022-10-18T00:30:45;32.90;;;26.02;;
36225;SDS011;22268;52.010;4.716;2022-10-18T00:33:11;45.17;;;31.02;;
36225;SDS011;22268;52.010;4.716;2022-10-18T00:35:36;42.15;;;28.92;;
36225;SDS011;22268;52.010;4.716;2022-10-18T00:38:01;23.85;;;19.52;;
36225;SDS011;22268;52.010;4.716;2022-10-18T00:40:26;29.37;;;24.05;;
36225;SDS011;22268;52.010;4.716;2022-10-18T00:42:51;44.13;;;27.60;;
36225;SDS011;22268;52.010;4.716;2022-10-18T00:45:18;50.10;;;27.55;;
36225;SDS011;22268;52.010;4.716;2022-10-18T00:47:46;34.58;;;26.05;;
36225;SDS011;22268;52.010;4.716;2022-10-18T00:50:12;35.78;;;24.20;;
36225;SDS011;22268;52.010;4.716;2022-10-18T00:55:03;31.52;;;24.77;;
36225;SDS011;22268;52.010;4.716;2022-10-18T00:57:28;23.60;;;21.10;;
36225;SDS011;22268;52.010;4.716;2022-10-18T00:59:54;31.90;;;23.00;;
36225;SDS011;22268;52.010;4.716;2022-10-18T01:02:19;30.23;;;22.25;;
36225;SDS011;22268;52.010;4.716;2022-10-18T01:04:45;28.52;;;22.13;;
36225;SDS011;22268;52.010;4.716;2022-10-18T01:22:23;24.02;;;21.45;;
36225;SDS011;22268;52.010;4.716;2022-10-18T01:24:54;23.75;;;21.48;;
36225;SDS011;22268;52.010;4.716;2022-10-18T01:32:18;26.85;;;20.90;;
36225;SDS011;22268;52.010;4.716;2022-10-18T01:34:44;23.33;;;19.85;;
36225;SDS011;22268;52.010;4.716;2022-10-18T01:37:13;98.30;;;25.08;;
36225;SDS011;22268;52.010;4.716;2022-10-18T01:39:39;61.22;;;26.83;;
36225;SDS011;22268;52.010;4.716;2022-10-18T01:42:07;231.95;;;35.20;;
36225;SDS011;22268;52.010;4.716;2022-10-18T01:44:34;160.23;;;33.00;;
36225;SDS011;22268;52.010;4.716;2022-10-18T01:47:00;123.93;;;27.90;;
36225;SDS011;22268;52.010;4.716;2022-10-18T01:49:26;110.68;;;25.50;;
36225;SDS011;22268;52.010;4.716;2022-10-18T01:54:18;117.25;;;25.50;;
36225;SDS011;22268;52.010;4.716;2022-10-18T01:59:16;49.47;;;15.68;;
36225;SDS011;22268;52.010;4.716;2022-10-18T02:01:47;89.72;;;26.00;;
36225;SDS011;22268;52.010;4.716;2022-10-18T02:06:42;126.47;;;26.08;;
36225;SDS011;22268;52.010;4.716;2022-10-18T02:09:17;173.73;;;27.02;;
36225;SDS011;22268;52.010;4.716;2022-10-18T02:11:43;109.85;;;25.67;;
36225;SDS011;22268;52.010;4.716;2022-10-18T02:14:10;52.60;;;27.33;;
36225;SDS011;22268;52.010;4.716;2022-10-18T02:16:44;69.12;;;27.85;;
36225;SDS011;22268;52.010;4.716;2022-10-18T02:19:14;71.47;;;24.98;;
36225;SDS011;22268;52.010;4.716;2022-10-18T02:21:40;75.20;;;26.05;;
36225;SDS011;22268;52.010;4.716;2022-10-18T02:24:06;94.82;;;27.85;;
36225;SDS011;22268;52.010;4.716;2022-10-18T02:26:32;66.30;;;20.50;;
36225;SDS011;22268;52.010;4.716;2022-10-18T02:31:28;30.42;;;20.92;;
36225;SDS011;22268;52.010;4.716;2022-10-18T02:36:43;71.75;;;34.80;;
36225;SDS011;22268;52.010;4.716;2022-10-18T02:39:13;27.70;;;20.92;;
36225;SDS011;22268;52.010;4.716;2022-10-18T02:41:40;35.55;;;24.60;;
36225;SDS011;22268;52.010;4.716;2022-10-18T02:44:07;32.92;;;24.80;;
36225;SDS011;22268;52.010;4.716;2022-10-18T02:48:57;36.33;;;24.92;;
36225;SDS011;22268;52.010;4.716;2022-10-18T02:51:22;25.12;;;19.37;;
36225;SDS011;22268;52.010;4.716;2022-10-18T02:53:47;32.03;;;23.12;;
36225;SDS011;22268;52.010;4.716;2022-10-18T02:56:13;28.17;;;20.88;;
36225;SDS011;22268;52.010;4.716;2022-10-18T03:01:03;30.98;;;21.45;;
36225;SDS011;22268;52.010;4.716;2022-10-18T03:05:54;29.45;;;23.83;;
36225;SDS011;22268;52.010;4.716;2022-10-18T03:08:19;30.33;;;19.75;;
36225;SDS011;22268;52.010;4.716;2022-10-18T03:10:44;28.10;;;19.85;;
36225;SDS011;22268;52.010;4.716;2022-10-18T03:13:10;27.37;;;21.02;;
36225;SDS011;22268;52.010;4.716;2022-10-18T03:18:03;40.60;;;23.75;;
36225;SDS011;22268;52.010;4.716;2022-10-18T03:22:53;39.25;;;24.63;;
36225;SDS011;22268;52.010;4.716;2022-10-18T03:25:18;35.58;;;23.87;;
36225;SDS011;22268;52.010;4.716;2022-10-18T03:27:43;31.70;;;23.67;;
36225;SDS011;22268;52.010;4.716;2022-10-18T03:30:09;29.00;;;22.42;;
36225;SDS011;22268;52.010;4.716;2022-10-18T03:32:36;28.70;;;21.05;;
36225;SDS011;22268;52.010;4.716;2022-10-18T03:37:26;30.45;;;22.75;;
36225;SDS011;22268;52.010;4.716;2022-10-18T03:39:51;22.35;;;19.15;;
36225;SDS011;22268;52.010;4.716;2022-10-18T03:42:16;27.02;;;21.50;;
36225;SDS011;22268;52.010;4.716;2022-10-18T03:44:41;27.45;;;20.08;;
36225;SDS011;22268;52.010;4.716;2022-10-18T03:47:07;24.08;;;18.35;;
36225;SDS011;22268;52.010;4.716;2022-10-18T03:49:32;20.95;;;17.42;;
36225;SDS011;22268;52.010;4.716;2022-10-18T03:54:23;23.62;;;16.37;;
36225;SDS011;22268;52.010;4.716;2022-10-18T03:56:48;25.08;;;19.62;;
36225;SDS011;22268;52.010;4.716;2022-10-18T03:59:13;28.27;;;17.85;;
36225;SDS011;22268;52.010;4.716;2022-10-18T04:01:41;22.98;;;17.58;;
36225;SDS011;22268;52.010;4.716;2022-10-18T04:06:31;20.12;;;15.55;;
36225;SDS011;22268;52.010;4.716;2022-10-18T04:08:56;27.55;;;17.95;;
36225;SDS011;22268;52.010;4.716;2022-10-18T04:11:21;20.85;;;16.37;;
36225;SDS011;22268;52.010;4.716;2022-10-18T04:13:46;23.12;;;15.88;;
36225;SDS011;22268;52.010;4.716;2022-10-18T04:16:11;22.45;;;16.50;;
36225;SDS011;22268;52.010;4.716;2022-10-18T04:21:02;20.15;;;15.27;;
36225;SDS011;22268;52.010;4.716;2022-10-18T04:23:27;22.42;;;17.40;;
36225;SDS011;22268;52.010;4.716;2022-10-18T04:25:52;19.02;;;15.02;;
36225;SDS011;22268;52.010;4.716;2022-10-18T04:28:17;27.87;;;16.95;;
36225;SDS011;22268;52.010;4.716;2022-10-18T04:30:43;23.48;;;14.73;;
36225;SDS011;22268;52.010;4.716;2022-10-18T04:35:33;26.30;;;14.68;;
36225;SDS011;22268;52.010;4.716;2022-10-18T04:37:58;24.77;;;15.65;;
36225;SDS011;22268;52.010;4.716;2022-10-18T04:40:23;34.63;;;17.12;;
36225;SDS011;22268;52.010;4.716;2022-10-18T04:42:48;30.88;;;16.05;;
36225;SDS011;22268;52.010;4.716;2022-10-18T04:45:14;40.95;;;17.58;;
36225;SDS011;22268;52.010;4.716;2022-10-18T04:50:04;41.67;;;16.92;;
36225;SDS011;22268;52.010;4.716;2022-10-18T04:54:55;20.58;;;14.27;;
36225;SDS011;22268;52.010;4.716;2022-10-18T04:59:45;26.00;;;15.86;;
36225;SDS011;22268;52.010;4.716;2022-10-18T05:04:35;22.37;;;13.13;;
36225;SDS011;22268;52.010;4.716;2022-10-18T05:07:00;26.35;;;13.68;;
36225;SDS011;22268;52.010;4.716;2022-10-18T05:09:26;40.03;;;15.38;;
36225;SDS011;22268;52.010;4.716;2022-10-18T05:14:17;45.10;;;17.42;;
36225;SDS011;22268;52.010;4.716;2022-10-18T05:16:42;49.25;;;18.62;;
36225;SDS011;22268;52.010;4.716;2022-10-18T05:19:08;55.17;;;20.58;;
36225;SDS011;22268;52.010;4.716;2022-10-18T05:23:58;82.25;;;24.02;;
36225;SDS011;22268;52.010;4.716;2022-10-18T05:26:23;57.62;;;22.67;;
36225;SDS011;22268;52.010;4.716;2022-10-18T05:28:49;78.85;;;23.70;;
36225;SDS011;22268;52.010;4.716;2022-10-18T05:31:14;68.00;;;25.67;;
36225;SDS011;22268;52.010;4.716;2022-10-18T05:33:40;100.43;;;26.12;;
36225;SDS011;22268;52.010;4.716;2022-10-18T05:38:30;74.28;;;24.27;;
36225;SDS011;22268;52.010;4.716;2022-10-18T05:40:55;108.32;;;26.00;;
36225;SDS011;22268;52.010;4.716;2022-10-18T05:43:21;94.55;;;23.73;;
36225;SDS011;22268;52.010;4.716;2022-10-18T05:45:46;89.78;;;27.00;;
36225;SDS011;22268;52.010;4.716;2022-10-18T05:48:12;68.62;;;28.08;;
36225;SDS011;22268;52.010;4.716;2022-10-18T05:50:37;56.88;;;24.60;;
36225;SDS011;22268;52.010;4.716;2022-10-18T05:53:02;48.28;;;23.70;;
36225;SDS011;22268;52.010;4.716;2022-10-18T05:55:27;42.65;;;22.13;;
36225;SDS011;22268;52.010;4.716;2022-10-18T05:57:52;48.42;;;24.05;;
36225;SDS011;22268;52.010;4.716;2022-10-18T06:00:18;50.00;;;23.40;;
36225;SDS011;22268;52.010;4.716;2022-10-18T06:05:08;45.00;;;19.10;;
36225;SDS011;22268;52.010;4.716;2022-10-18T06:09:58;68.15;;;24.70;;
36225;SDS011;22268;52.010;4.716;2022-10-18T06:12:23;46.33;;;22.67;;
36225;SDS011;22268;52.010;4.716;2022-10-18T06:14:49;49.00;;;20.00;;
36225;SDS011;22268;52.010;4.716;2022-10-18T06:19:39;39.08;;;19.42;;
36225;SDS011;22268;52.010;4.716;2022-10-18T06:24:29;51.58;;;25.12;;
36225;SDS011;22268;52.010;4.716;2022-10-18T06:29:20;47.65;;;20.30;;
36225;SDS011;22268;52.010;4.716;2022-10-18T06:31:45;40.15;;;21.37;;
36225;SDS011;22268;52.010;4.716;2022-10-18T06:36:35;54.10;;;22.45;;
36225;SDS011;22268;52.010;4.716;2022-10-18T06:39:00;46.47;;;20.58;;
36225;SDS011;22268;52.010;4.716;2022-10-18T06:41:26;43.92;;;20.15;;
36225;SDS011;22268;52.010;4.716;2022-10-18T06:43:52;39.10;;;20.83;;
36225;SDS011;22268;52.010;4.716;2022-10-18T06:46:19;39.72;;;20.80;;
36225;SDS011;22268;52.010;4.716;2022-10-18T06:51:09;39.00;;;18.83;;
36225;SDS011;22268;52.010;4.716;2022-10-18T06:53:38;40.60;;;17.90;;
36225;SDS011;22268;52.010;4.716;2022-10-18T06:56:05;46.00;;;20.42;;
36225;SDS011;22268;52.010;4.716;2022-10-18T06:58:31;41.60;;;21.33;;
36225;SDS011;22268;52.010;4.716;2022-10-18T07:03:21;40.28;;;18.30;;
36225;SDS011;22268;52.010;4.716;2022-10-18T07:08:12;43.05;;;19.92;;
36225;SDS011;22268;52.010;4.716;2022-10-18T07:10:37;37.35;;;19.05;;
36225;SDS011;22268;52.010;4.716;2022-10-18T07:15:27;30.30;;;16.60;;
36225;SDS011;22268;52.010;4.716;2022-10-18T07:17:53;29.40;;;16.30;;
36225;SDS011;22268;52.010;4.716;2022-10-18T07:20:18;33.22;;;15.18;;
36225;SDS011;22268;52.010;4.716;2022-10-18T07:22:43;31.75;;;14.98;;
36225;SDS011;22268;52.010;4.716;2022-10-18T07:25:08;43.30;;;15.40;;
36225;SDS011;22268;52.010;4.716;2022-10-18T07:29:59;29.87;;;10.20;;
36225;SDS011;22268;52.010;4.716;2022-10-18T07:32:24;31.33;;;11.12;;
36225;SDS011;22268;52.010;4.716;2022-10-18T07:34:49;26.08;;;10.90;;
36225;SDS011;22268;52.010;4.716;2022-10-18T07:37:14;20.50;;;10.40;;
36225;SDS011;22268;52.010;4.716;2022-10-18T07:39:39;27.33;;;11.12;;
36225;SDS011;22268;52.010;4.716;2022-10-18T07:42:04;22.58;;;9.48;;
36225;SDS011;22268;52.010;4.716;2022-10-18T07:44:30;19.90;;;7.80;;
36225;SDS011;22268;52.010;4.716;2022-10-18T07:46:55;19.40;;;8.45;;
36225;SDS011;22268;52.010;4.716;2022-10-18T07:51:45;32.38;;;10.32;;
36225;SDS011;22268;52.010;4.716;2022-10-18T07:54:10;33.42;;;8.88;;
36225;SDS011;22268;52.010;4.716;2022-10-18T07:56:36;25.15;;;7.00;;
36225;SDS011;22268;52.010;4.716;2022-10-18T07:59:01;20.40;;;7.00;;
36225;SDS011;22268;52.010;4.716;2022-10-18T08:01:26;15.60;;;5.62;;
36225;SDS011;22268;52.010;4.716;2022-10-18T08:03:51;43.25;;;8.60;;
36225;SDS011;22268;52.010;4.716;2022-10-18T08:06:17;23.55;;;5.55;;
36225;SDS011;22268;52.010;4.716;2022-10-18T08:08:43;15.70;;;4.45;;
36225;SDS011;22268;52.010;4.716;2022-10-18T08:11:09;16.85;;;4.97;;
36225;SDS011;22268;52.010;4.716;2022-10-18T08:13:35;16.67;;;6.32;;
36225;SDS011;22268;52.010;4.716;2022-10-18T08:16:01;63.53;;;11.48;;
36225;SDS011;22268;52.010;4.716;2022-10-18T08:18:26;23.05;;;5.60;;
36225;SDS011;22268;52.010;4.716;2022-10-18T08:20:52;15.45;;;5.03;;
36225;SDS011;22268;52.010;4.716;2022-10-18T08:23:17;11.57;;;3.75;;
36225;SDS011;22268;52.010;4.716;2022-10-18T08:25:42;21.45;;;6.30;;
36225;SDS011;22268;52.010;4.716;2022-10-18T08:28:07;17.12;;;4.05;;
36225;SDS011;22268;52.010;4.716;2022-10-18T08:30:33;24.27;;;5.05;;
36225;SDS011;22268;52.010;4.716;2022-10-18T08:32:58;15.80;;;4.62;;
36225;SDS011;22268;52.010;4.716;2022-10-18T08:35:24;27.62;;;5.15;;
36225;SDS011;22268;52.010;4.716;2022-10-18T08:37:49;16.02;;;3.92;;
36225;SDS011;22268;52.010;4.716;2022-10-18T08:40:15;19.50;;;4.00;;
36225;SDS011;22268;52.010;4.716;2022-10-18T08:45:11;12.68;;;3.65;;
36225;SDS011;22268;52.010;4.716;2022-10-18T08:47:40;15.82;;;3.60;;
36225;SDS011;22268;52.010;4.716;2022-10-18T08:50:10;33.97;;;6.20;;
36225;SDS011;22268;52.010;4.716;2022-10-18T08:52:48;15.63;;;4.07;;
36225;SDS011;22268;52.010;4.716;2022-10-18T08:57:40;17.05;;;3.42;;
36225;SDS011;22268;52.010;4.716;2022-10-18T09:00:18;24.23;;;3.87;;
36225;SDS011;22268;52.010;4.716;2022-10-18T09:05:33;10.30;;;2.30;;
36225;SDS011;22268;52.010;4.716;2022-10-18T09:15:49;8.13;;;2.12;;
36225;SDS011;22268;52.010;4.716;2022-10-18T09:18:33;7.65;;;1.65;;
36225;SDS011;22268;52.010;4.716;2022-10-18T09:21:11;11.15;;;2.42;;
36225;SDS011;22268;52.010;4.716;2022-10-18T09:26:17;13.80;;;2.92;;
36225;SDS011;22268;52.010;4.716;2022-10-18T09:28:47;10.25;;;2.33;;
36225;SDS011;22268;52.010;4.716;2022-10-18T09:31:50;10.95;;;2.53;;
36225;SDS011;22268;52.010;4.716;2022-10-18T09:34:13;13.50;;;2.75;;
36225;SDS011;22268;52.010;4.716;2022-10-18T09:36:43;22.37;;;3.92;;
36225;SDS011;22268;52.010;4.716;2022-10-18T09:39:15;13.75;;;2.12;;
36225;SDS011;22268;52.010;4.716;2022-10-18T09:41:52;8.07;;;2.15;;
36225;SDS011;22268;52.010;4.716;2022-10-18T09:44:37;11.18;;;1.85;;
36225;SDS011;22268;52.010;4.716;2022-10-18T09:47:20;6.47;;;1.83;;
36225;SDS011;22268;52.010;4.716;2022-10-18T09:49:48;11.05;;;2.70;;
36225;SDS011;22268;52.010;4.716;2022-10-18T09:52:20;7.57;;;2.75;;
36225;SDS011;22268;52.010;4.716;2022-10-18T09:54:57;10.60;;;2.08;;
36225;SDS011;22268;52.010;4.716;2022-10-18T09:57:31;7.62;;;2.58;;
36225;SDS011;22268;52.010;4.716;2022-10-18T09:59:57;21.35;;;3.00;;
36225;SDS011;22268;52.010;4.716;2022-10-18T10:02:24;6.57;;;2.17;;
36225;SDS011;22268;52.010;4.716;2022-10-18T10:04:49;13.15;;;2.08;;
36225;SDS011;22268;52.010;4.716;2022-10-18T10:07:19;10.82;;;1.70;;
36225;SDS011;22268;52.010;4.716;2022-10-18T10:09:45;10.63;;;2.55;;
36225;SDS011;22268;52.010;4.716;2022-10-18T10:12:29;14.87;;;2.15;;
36225;SDS011;22268;52.010;4.716;2022-10-18T10:14:58;9.52;;;1.90;;
36225;SDS011;22268;52.010;4.716;2022-10-18T10:17:30;12.30;;;2.77;;
36225;SDS011;22268;52.010;4.716;2022-10-18T10:19:57;12.52;;;2.95;;
36225;SDS011;22268;52.010;4.716;2022-10-18T10:22:30;6.20;;;2.35;;
36225;SDS011;22268;52.010;4.716;2022-10-18T10:24:57;13.75;;;2.53;;
36225;SDS011;22268;52.010;4.716;2022-10-18T10:27:30;12.35;;;2.47;;
36225;SDS011;22268;52.010;4.716;2022-10-18T10:29:57;11.65;;;2.30;;
36225;SDS011;22268;52.010;4.716;2022-10-18T10:32:24;15.25;;;2.58;;
36225;SDS011;22268;52.010;4.716;2022-10-18T10:34:49;15.80;;;7.00;;
36225;SDS011;22268;52.010;4.716;2022-10-18T10:37:22;14.63;;;2.30;;
36225;SDS011;22268;52.010;4.716;2022-10-18T10:40:09;9.90;;;2.47;;
36225;SDS011;22268;52.010;4.716;2022-10-18T10:42:37;9.88;;;2.00;;
36225;SDS011;22268;52.010;4.716;2022-10-18T10:45:12;7.50;;;1.65;;
36225;SDS011;22268;52.010;4.716;2022-10-18T10:47:37;8.82;;;2.42;;
36225;SDS011;22268;52.010;4.716;2022-10-18T10:50:08;11.75;;;1.90;;
36225;SDS011;22268;52.010;4.716;2022-10-18T10:52:35;7.32;;;1.95;;
36225;SDS011;22268;52.010;4.716;2022-10-18T10:55:01;6.85;;;2.20;;
36225;SDS011;22268;52.010;4.716;2022-10-18T10:57:27;9.85;;;2.53;;
36225;SDS011;22268;52.010;4.716;2022-10-18T10:59:54;10.20;;;2.25;;
36225;SDS011;22268;52.010;4.716;2022-10-18T11:02:25;11.75;;;2.30;;
36225;SDS011;22268;52.010;4.716;2022-10-18T11:04:53;9.10;;;2.05;;
36225;SDS011;22268;52.010;4.716;2022-10-18T11:12:38;8.25;;;2.35;;
36225;SDS011;22268;52.010;4.716;2022-10-18T11:22:43;10.15;;;1.90;;
36225;SDS011;22268;52.010;4.716;2022-10-18T11:25:11;16.23;;;2.40;;
36225;SDS011;22268;52.010;4.716;2022-10-18T11:27:42;10.32;;;2.37;;
36225;SDS011;22268;52.010;4.716;2022-10-18T11:33:01;10.02;;;2.22;;
36225;SDS011;22268;52.010;4.716;2022-10-18T11:35:34;7.37;;;2.45;;
36225;SDS011;22268;52.010;4.716;2022-10-18T11:46:13;14.75;;;2.58;;
36225;SDS011;22268;52.010;4.716;2022-10-18T11:49:14;11.93;;;2.37;;
36225;SDS011;22268;52.010;4.716;2022-10-18T11:58:53;7.37;;;2.00;;
36225;SDS011;22268;52.010;4.716;2022-10-18T12:03:50;9.95;;;2.10;;
36225;SDS011;22268;52.010;4.716;2022-10-18T12:06:20;6.95;;;2.03;;
36225;SDS011;22268;52.010;4.716;2022-10-18T12:08:47;6.10;;;2.17;;
36225;SDS011;22268;52.010;4.716;2022-10-18T12:11:14;5.72;;;2.28;;
36225;SDS011;22268;52.010;4.716;2022-10-18T12:13:51;6.47;;;1.60;;
36225;SDS011;22268;52.010;4.716;2022-10-18T12:18:47;10.65;;;2.30;;
36225;SDS011;22268;52.010;4.716;2022-10-18T12:21:13;3.33;;;1.50;;
36225;SDS011;22268;52.010;4.716;2022-10-18T12:23:53;4.85;;;1.80;;
36225;SDS011;22268;52.010;4.716;2022-10-18T12:26:19;7.30;;;1.70;;
36225;SDS011;22268;52.010;4.716;2022-10-18T12:33:43;6.47;;;1.90;;
36225;SDS011;22268;52.010;4.716;2022-10-18T12:38:57;7.43;;;2.00;;
36225;SDS011;22268;52.010;4.716;2022-10-18T12:41:31;5.00;;;2.00;;
36225;SDS011;22268;52.010;4.716;2022-10-18T12:46:46;9.52;;;2.22;;
36225;SDS011;22268;52.010;4.716;2022-10-18T12:49:12;9.85;;;1.75;;
36225;SDS011;22268;52.010;4.716;2022-10-18T12:52:18;3.62;;;1.65;;
36225;SDS011;22268;52.010;4.716;2022-10-18T12:54:38;7.30;;;2.37;;
36225;SDS011;22268;52.010;4.716;2022-10-18T12:57:04;3.58;;;1.65;;
36225;SDS011;22268;52.010;4.716;2022-10-18T12:59:38;5.85;;;1.70;;
36225;SDS011;22268;52.010;4.716;2022-10-18T13:09:32;7.68;;;1.92;;
36225;SDS011;22268;52.010;4.716;2022-10-18T13:35:40;7.93;;;2.30;;
36225;SDS011;22268;52.010;4.716;2022-10-18T13:41:00;8.88;;;1.95;;
36225;SDS011;22268;52.010;4.716;2022-10-18T13:46:10;4.90;;;1.60;;
36225;SDS011;22268;52.010;4.716;2022-10-18T13:51:05;5.03;;;1.90;;
36225;SDS011;22268;52.010;4.716;2022-10-18T13:53:36;4.10;;;1.30;;
36225;SDS011;22268;52.010;4.716;2022-10-18T14:01:46;6.90;;;1.85;;
36225;SDS011;22268;52.010;4.716;2022-10-18T14:04:32;6.40;;;2.15;;
36225;SDS011;22268;52.010;4.716;2022-10-18T14:07:02;7.07;;;1.92;;
36225;SDS011;22268;52.010;4.716;2022-10-18T14:09:29;4.97;;;1.83;;
36225;SDS011;22268;52.010;4.716;2022-10-18T14:14:46;7.70;;;2.03;;
36225;SDS011;22268;52.010;4.716;2022-10-18T14:24:41;6.75;;;1.85;;
36225;SDS011;22268;52.010;4.716;2022-10-18T14:29:38;6.78;;;2.08;;
36225;SDS011;22268;52.010;4.716;2022-10-18T14:32:07;4.70;;;1.58;;
36225;SDS011;22268;52.010;4.716;2022-10-18T14:34:32;7.78;;;2.00;;
36225;SDS011;22268;52.010;4.716;2022-10-18T14:36:58;5.65;;;2.17;;
36225;SDS011;22268;52.010;4.716;2022-10-18T14:39:24;12.95;;;1.90;;
36225;SDS011;22268;52.010;4.716;2022-10-18T14:41:52;7.15;;;1.60;;
36225;SDS011;22268;52.010;4.716;2022-10-18T14:44:24;10.35;;;1.90;;
36225;SDS011;22268;52.010;4.716;2022-10-18T14:49:37;10.38;;;2.42;;
36225;SDS011;22268;52.010;4.716;2022-10-18T14:52:08;13.18;;;2.80;;
36225;SDS011;22268;52.010;4.716;2022-10-18T14:54:36;10.60;;;2.05;;
36225;SDS011;22268;52.010;4.716;2022-10-18T14:57:02;9.73;;;2.00;;
36225;SDS011;22268;52.010;4.716;2022-10-18T14:59:29;10.70;;;2.28;;
36225;SDS011;22268;52.010;4.716;2022-10-18T15:04:21;10.50;;;2.40;;
36225;SDS011;22268;52.010;4.716;2022-10-18T15:06:47;9.85;;;2.35;;
36225;SDS011;22268;52.010;4.716;2022-10-18T15:09:21;10.02;;;2.58;;
36225;SDS011;22268;52.010;4.716;2022-10-18T15:11:47;10.55;;;2.65;;
36225;SDS011;22268;52.010;4.716;2022-10-18T15:14:13;9.07;;;2.40;;
36225;SDS011;22268;52.010;4.716;2022-10-18T15:16:40;10.27;;;2.35;;
36225;SDS011;22268;52.010;4.716;2022-10-18T15:19:19;8.50;;;2.00;;
36225;SDS011;22268;52.010;4.716;2022-10-18T15:22:09;7.68;;;1.92;;
36225;SDS011;22268;52.010;4.716;2022-10-18T15:24:34;7.90;;;2.67;;
36225;SDS011;22268;52.010;4.716;2022-10-18T15:27:01;8.70;;;2.10;;
36225;SDS011;22268;52.010;4.716;2022-10-18T15:29:30;6.55;;;2.00;;
36225;SDS011;22268;52.010;4.716;2022-10-18T15:32:02;10.40;;;2.42;;
36225;SDS011;22268;52.010;4.716;2022-10-18T15:34:28;7.78;;;2.25;;
36225;SDS011;22268;52.010;4.716;2022-10-18T15:36:54;8.65;;;2.03;;
36225;SDS011;22268;52.010;4.716;2022-10-18T15:39:23;10.88;;;2.37;;
36225;SDS011;22268;52.010;4.716;2022-10-18T15:41:49;8.88;;;2.20;;
36225;SDS011;22268;52.010;4.716;2022-10-18T15:46:44;9.05;;;2.47;;
36225;SDS011;22268;52.010;4.716;2022-10-18T15:51:49;5.87;;;1.80;;
36225;SDS011;22268;52.010;4.716;2022-10-18T15:54:28;12.45;;;4.43;;
36225;SDS011;22268;52.010;4.716;2022-10-18T15:56:53;9.20;;;3.30;;
36225;SDS011;22268;52.010;4.716;2022-10-18T15:59:23;13.18;;;3.53;;
36225;SDS011;22268;52.010;4.716;2022-10-18T16:01:48;11.23;;;2.53;;
36225;SDS011;22268;52.010;4.716;2022-10-18T16:04:17;10.88;;;2.40;;
36225;SDS011;22268;52.010;4.716;2022-10-18T16:06:44;12.10;;;2.05;;
36225;SDS011;22268;52.010;4.716;2022-10-18T16:09:14;11.90;;;2.55;;
36225;SDS011;22268;52.010;4.716;2022-10-18T16:11:40;8.13;;;2.67;;
36225;SDS011;22268;52.010;4.716;2022-10-18T16:14:05;11.15;;;3.03;;
36225;SDS011;22268;52.010;4.716;2022-10-18T16:16:31;16.98;;;4.45;;
36225;SDS011;22268;52.010;4.716;2022-10-18T16:18:56;10.88;;;3.28;;
36225;SDS011;22268;52.010;4.716;2022-10-18T16:21:24;13.93;;;3.40;;
36225;SDS011;22268;52.010;4.716;2022-10-18T16:23:50;10.73;;;4.05;;
36225;SDS011;22268;52.010;4.716;2022-10-18T16:26:16;13.93;;;2.90;;
36225;SDS011;22268;52.010;4.716;2022-10-18T16:28:41;10.93;;;4.00;;
36225;SDS011;22268;52.010;4.716;2022-10-18T16:31:08;21.25;;;3.60;;
36225;SDS011;22268;52.010;4.716;2022-10-18T16:33:33;13.15;;;3.70;;
36225;SDS011;22268;52.010;4.716;2022-10-18T16:36:00;11.52;;;3.62;;
36225;SDS011;22268;52.010;4.716;2022-10-18T16:38:33;14.70;;;3.00;;
36225;SDS011;22268;52.010;4.716;2022-10-18T16:40:59;8.98;;;3.17;;
36225;SDS011;22268;52.010;4.716;2022-10-18T16:43:24;16.23;;;4.15;;
36225;SDS011;22268;52.010;4.716;2022-10-18T16:45:50;15.05;;;3.45;;
36225;SDS011;22268;52.010;4.716;2022-10-18T16:48:17;9.02;;;4.22;;
36225;SDS011;22268;52.010;4.716;2022-10-18T16:50:42;14.80;;;4.85;;
36225;SDS011;22268;52.010;4.716;2022-10-18T16:53:08;14.63;;;5.18;;
36225;SDS011;22268;52.010;4.716;2022-10-18T16:55:33;14.73;;;4.75;;
36225;SDS011;22268;52.010;4.716;2022-10-18T16:57:59;18.37;;;3.75;;
36225;SDS011;22268;52.010;4.716;2022-10-18T17:00:24;16.48;;;4.62;;
36225;SDS011;22268;52.010;4.716;2022-10-18T17:02:50;23.55;;;9.48;;
36225;SDS011;22268;52.010;4.716;2022-10-18T17:05:16;22.08;;;10.07;;
36225;SDS011;22268;52.010;4.716;2022-10-18T17:07:41;29.95;;;13.65;;
36225;SDS011;22268;52.010;4.716;2022-10-18T17:10:07;26.27;;;11.15;;
36225;SDS011;22268;52.010;4.716;2022-10-18T17:12:32;20.20;;;7.55;;
36225;SDS011;22268;52.010;4.716;2022-10-18T17:14:57;22.95;;;9.75;;
36225;SDS011;22268;52.010;4.716;2022-10-18T17:17:23;20.48;;;7.20;;
36225;SDS011;22268;52.010;4.716;2022-10-18T17:19:48;14.98;;;5.22;;
36225;SDS011;22268;52.010;4.716;2022-10-18T17:22:13;17.65;;;4.32;;
36225;SDS011;22268;52.010;4.716;2022-10-18T17:24:39;11.82;;;3.90;;
36225;SDS011;22268;52.010;4.716;2022-10-18T17:27:04;15.48;;;3.50;;
36225;SDS011;22268;52.010;4.716;2022-10-18T17:29:29;19.85;;;4.10;;
36225;SDS011;22268;52.010;4.716;2022-10-18T17:31:54;13.32;;;3.87;;
36225;SDS011;22268;52.010;4.716;2022-10-18T17:34:19;13.32;;;4.25;;
36225;SDS011;22268;52.010;4.716;2022-10-18T17:36:45;16.33;;;4.07;;
36225;SDS011;22268;52.010;4.716;2022-10-18T17:39:10;18.83;;;4.12;;
36225;SDS011;22268;52.010;4.716;2022-10-18T17:41:35;17.35;;;4.10;;
36225;SDS011;22268;52.010;4.716;2022-10-18T17:44:01;17.00;;;4.40;;
36225;SDS011;22268;52.010;4.716;2022-10-18T17:46:26;13.40;;;4.05;;
36225;SDS011;22268;52.010;4.716;2022-10-18T17:48:52;10.27;;;4.07;;
36225;SDS011;22268;52.010;4.716;2022-10-18T17:51:17;13.18;;;4.70;;
36225;SDS011;22268;52.010;4.716;2022-10-18T17:53:42;17.00;;;5.10;;
36225;SDS011;22268;52.010;4.716;2022-10-18T17:56:08;15.43;;;4.85;;
36225;SDS011;22268;52.010;4.716;2022-10-18T18:01:12;17.92;;;5.05;;
36225;SDS011;22268;52.010;4.716;2022-10-18T18:03:37;17.45;;;5.43;;
36225;SDS011;22268;52.010;4.716;2022-10-18T18:06:13;16.77;;;5.03;;
36225;SDS011;22268;52.010;4.716;2022-10-18T18:08:39;15.55;;;5.93;;
36225;SDS011;22268;52.010;4.716;2022-10-18T18:11:04;17.40;;;4.80;;
36225;SDS011;22268;52.010;4.716;2022-10-18T18:13:29;22.50;;;4.65;;
36225;SDS011;22268;52.010;4.716;2022-10-18T18:15:54;19.70;;;5.55;;
36225;SDS011;22268;52.010;4.716;2022-10-18T18:18:19;18.05;;;4.20;;
36225;SDS011;22268;52.010;4.716;2022-10-18T18:20:50;17.23;;;4.32;;
36225;SDS011;22268;52.010;4.716;2022-10-18T18:23:16;18.87;;;4.28;;
36225;SDS011;22268;52.010;4.716;2022-10-18T18:25:41;17.70;;;4.32;;
36225;SDS011;22268;52.010;4.716;2022-10-18T18:28:06;20.58;;;5.18;;
36225;SDS011;22268;52.010;4.716;2022-10-18T18:30:31;20.88;;;5.55;;
36225;SDS011;22268;52.010;4.716;2022-10-18T18:32:57;17.60;;;6.03;;
36225;SDS011;22268;52.010;4.716;2022-10-18T18:35:22;16.20;;;4.63;;